| time (UTC) | temp C | wind direction | speed KPH | gust KPH | rain 1hr cm | rain 24hr cm | rain mn cm | humidity % | barometer mb |
| 20260502194557 | 18 | 360 | 20.9 | 40.2 | 0.00 | 0.00 | 0.00 | 31 | 1013.4 |
| 20260502193055 | 18 | 360 | 17.7 | 30.6 | 0.00 | 0.00 | 0.00 | 31 | 1013.4 |
| 20260502191550 | 17 | 360 | 20.9 | 32.2 | 0.00 | 0.00 | 0.00 | 36 | 1013.3 |
| 20260502190050 | 18 | 360 | 27.4 | 38.6 | 0.00 | 0.00 | 0.00 | 37 | 1013.4 |
| 20260502184550 | 18 | 360 | 25.7 | 37.0 | 0.00 | 0.00 | 0.00 | 35 | 1013.6 |
| 20260502183042 | 18 | 13 | 25.7 | 37.0 | 0.00 | 0.00 | 0.00 | 35 | 1013.6 |
| 20260502181545 | 17 | 16 | 22.5 | 37.0 | 0.00 | 0.00 | 0.00 | 36 | 1013.6 |
| 20260502163038 | 16 | 5 | 25.7 | 35.4 | 0.00 | 0.00 | 0.00 | 40 | 1013.3 |
| 20260502161525 | 16 | 13 | 24.1 | 38.6 | 0.00 | 0.00 | 0.00 | 40 | 1013.2 |
| 20260502151525 | 14 | 5 | 17.7 | 33.8 | 0.00 | 0.00 | 0.00 | 48 | 1012.9 |
| 20260502123052 | 8 | 360 | 9.7 | 17.7 | 0.00 | 0.00 | 0.00 | 62 | 1012.5 |
| 20260502121546 | 8 | 360 | 9.7 | 16.1 | 0.00 | 0.00 | 0.00 | 62 | 1012.5 |
| 20260502114538 | 7 | 360 | 12.9 | 19.3 | 0.00 | 0.00 | 0.00 | 61 | 1012.4 |
| 20260502113037 | 7 | 360 | 14.5 | 20.9 | 0.00 | 0.00 | 0.00 | 60 | 1012.6 |
| 20260502111539 | 7 | 360 | 14.5 | 20.9 | 0.00 | 0.00 | 0.00 | 60 | 1012.4 |
| 20260502110036 | 7 | 360 | 12.9 | 22.5 | 0.00 | 0.00 | 0.00 | 60 | 1012.5 |
| 20260502104536 | 7 | 360 | 14.5 | 19.3 | 0.00 | 0.00 | 0.00 | 60 | 1012.4 |
| 20260502103028 | 8 | 360 | 12.9 | 17.7 | 0.00 | 0.00 | 0.00 | 58 | 1012.1 |
| 20260502101527 | 8 | 360 | 9.7 | 17.7 | 0.00 | 0.00 | 0.00 | 57 | 1011.7 |
| 20260502091519 | 8 | 360 | 9.7 | 17.7 | 0.00 | 0.00 | 0.00 | 55 | 1011.7 |
| 20260502070055 | 12 | 360 | 16.1 | 27.4 | 0.00 | 0.00 | 0.00 | 43 | 1011.8 |
| 20260502064600 | 12 | 224 | 14.5 | 25.7 | 0.00 | 0.00 | 0.00 | 42 | 1011.7 |
| 20260502063049 | 12 | 360 | 14.5 | 24.1 | 0.00 | 0.00 | 0.00 | 41 | 1011.8 |
| 20260502061553 | 12 | 236 | 12.9 | 25.7 | 0.00 | 0.00 | 0.00 | 41 | 1011.9 |
| 20260502060041 | 11 | 226 | 11.3 | 24.1 | 0.00 | 0.00 | 0.00 | 41 | 1012.0 |
| 20260502054539 | 11 | 227 | 8.0 | 14.5 | 0.00 | 0.00 | 0.00 | 43 | 1012.0 |
| 20260502053038 | 11 | 360 | 6.4 | 16.1 | 0.00 | 0.00 | 0.00 | 41 | 1012.3 |
| 20260502051535 | 10 | 360 | 0.0 | 8.0 | 0.00 | 0.00 | 0.00 | 41 | 1012.4 |
| 20260502050034 | 10 | 194 | 6.4 | 17.7 | 0.00 | 0.00 | 0.00 | 40 | 1012.7 |
| 20260502044531 | 8 | 360 | 8.0 | 12.9 | 0.00 | 0.00 | 0.00 | 42 | 1012.8 |
| 20260502043030 | 8 | 360 | 1.6 | 9.7 | 0.00 | 0.00 | 0.00 | 44 | 1012.9 |
| 20260502041531 | 8 | 360 | 8.0 | 12.9 | 0.00 | 0.00 | 0.00 | 41 | 1013.1 |
| 20260502040027 | 9 | 360 | 8.0 | 17.7 | 0.00 | 0.00 | 0.00 | 41 | 1013.2 |
| 20260502034525 | 8 | 360 | 8.0 | 16.1 | 0.00 | 0.00 | 0.00 | 43 | 1013.3 |
| 20260502033027 | 9 | 360 | 4.8 | 14.5 | 0.00 | 0.00 | 0.00 | 43 | 1013.3 |
| 20260502031523 | 9 | 360 | 6.4 | 12.9 | 0.00 | 0.00 | 0.00 | 42 | 1013.4 |
| 20260502030024 | 10 | 360 | 6.4 | 12.9 | 0.00 | 0.00 | 0.00 | 43 | 1013.4 |
| 20260502024523 | 10 | 360 | 6.4 | 12.9 | 0.00 | 0.00 | 0.00 | 42 | 1013.5 |
| 20260502023021 | 11 | 360 | 6.4 | 11.3 | 0.00 | 0.00 | 0.00 | 41 | 1013.5 |
| 20260502021519 | 13 | 360 | 4.8 | 9.7 | 0.00 | 0.00 | 0.00 | 37 | 1013.6 |
| 20260502020018 | 15 | 227 | 4.8 | 8.0 | 0.00 | 0.00 | 0.00 | 32 | 1013.7 |
| 20260502014516 | 16 | 227 | 3.2 | 8.0 | 0.00 | 0.00 | 0.00 | 28 | 1013.9 |
| 20260502013014 | 17 | 227 | 3.2 | 6.4 | 0.00 | 0.00 | 0.00 | 25 | 1014.0 |
| 20260502011514 | 18 | 227 | 3.2 | 11.3 | 0.00 | 0.00 | 0.00 | 23 | 1014.2 |
| 20260502010011 | 19 | 360 | 4.8 | 17.7 | 0.00 | 0.00 | 0.00 | 22 | 1014.4 |
| 20260502004511 | 20 | 360 | 11.3 | 19.3 | 0.00 | 0.00 | 0.00 | 19 | 1014.5 |
| 20260502003012 | 20 | 222 | 6.4 | 14.5 | 0.00 | 0.00 | 0.00 | 19 | 1014.6 |
| 20260502001508 | 20 | 360 | 6.4 | 14.5 | 0.00 | 0.00 | 0.00 | 19 | 1014.8 |
| 20260502000014 | 20 | 360 | 8.0 | 16.1 | 0.00 | 0.00 | 0.00 | 19 | 1014.9 |
| 20260501234506 | 21 | 360 | 8.0 | 17.7 | 0.00 | 0.00 | 0.00 | 19 | 1015.0 |
| 20260501233003 | 21 | 234 | 8.0 | 19.3 | 0.00 | 0.00 | 0.00 | 18 | 1015.1 |
| 20260501231502 | 21 | 360 | 8.0 | 19.3 | 0.00 | 0.00 | 0.00 | 19 | 1015.2 |
| 20260501224556 | 21 | 223 | 4.8 | 20.9 | 0.00 | 0.00 | 0.00 | 19 | 1015.5 |
| 20260501223104 | 21 | 360 | 6.4 | 16.1 | 0.00 | 0.00 | 0.00 | 18 | 1015.5 |
| 20260501221553 | 21 | 360 | 8.0 | 20.9 | 0.00 | 0.00 | 0.00 | 20 | 1015.7 |
| 20260501220055 | 21 | 360 | 8.0 | 17.7 | 0.00 | 0.00 | 0.00 | 19 | 1015.8 |
| 20260501214555 | 21 | 360 | 9.7 | 20.9 | 0.00 | 0.00 | 0.00 | 20 | 1016.1 |
| 20260501213048 | 21 | 360 | 8.0 | 20.9 | 0.00 | 0.00 | 0.00 | 18 | 1016.3 |
| 20260501211553 | 21 | 360 | 8.0 | 22.5 | 0.00 | 0.00 | 0.00 | 19 | 1016.4 |
| 20260501210048 | 21 | 360 | 8.0 | 32.2 | 0.00 | 0.00 | 0.00 | 19 | 1016.7 |
| 20260501204614 | 20 | 360 | 9.7 | 20.9 | 0.00 | 0.00 | 0.00 | 21 | 1016.9 |
| 20260501203040 | 20 | 226 | 6.4 | 20.9 | 0.00 | 0.00 | 0.00 | 21 | 1017.1 |
| 20260501201535 | 20 | 360 | 9.7 | 29.0 | 0.00 | 0.00 | 0.00 | 22 | 1017.1 |
| 20260501200034 | 19 | 360 | 0.0 | 12.9 | 0.00 | 0.00 | 0.00 | 20 | 1017.2 |